Time;durP1;ratioP1;P1;durP2;ratioP2;P2;SDS_P1;SDS_P2;PMS_P1;PMS_P2;Temp;Humidity;BMP_temperature;BMP_pressure;BME280_temperature;BME280_humidity;BME280_pressure;Samples;Min_cycle;Max_cycle;Signal;HPM_P1;HPM_P2
2023/02/06 00:01:40;;;;;;;35.85;22.27;;;0.20;65.60;;;;;;5046799;28;20029;-67
2023/02/06 00:04:06;;;;;;;42.67;24.80;;;0.20;65.60;;;;;;5048955;28;20096;-68
2023/02/06 00:06:32;;;;;;;53.58;28.65;;;0.30;65.40;;;;;;5044307;28;20033;-68
2023/02/06 00:08:57;;;;;;;45.75;25.95;;;0.30;65.50;;;;;;5040721;28;20029;-68
2023/02/06 00:11:23;;;;;;;53.85;28.52;;;0.30;65.50;;;;;;5042764;28;20037;-68
2023/02/06 00:13:50;;;;;;;58.30;28.90;;;0.30;65.50;;;;;;5042508;28;20052;-67
2023/02/06 00:16:20;;;;;;;49.83;27.30;;;0.30;65.60;;;;;;5042446;28;20036;-68
2023/02/06 00:18:46;;;;;;;68.07;31.48;;;0.20;65.80;;;;;;5043076;28;20037;-67
2023/02/06 00:21:13;;;;;;;38.97;22.73;;;0.20;65.70;;;;;;5035288;28;20377;-67
2023/02/06 00:23:38;;;;;;;40.10;23.60;;;0.30;65.60;;;;;;5040390;28;20083;-67
2023/02/06 00:26:05;;;;;;;46.20;26.08;;;0.30;65.50;;;;;;5043156;28;20045;-68
2023/02/06 00:28:30;;;;;;;33.22;20.65;;;0.30;65.60;;;;;;5044947;28;20025;-67
2023/02/06 00:30:56;;;;;;;63.03;28.33;;;0.30;65.50;;;;;;5035480;28;20051;-67
2023/02/06 00:33:21;;;;;;;45.40;24.25;;;0.30;65.50;;;;;;5039285;28;20030;-67
2023/02/06 00:35:47;;;;;;;64.95;30.58;;;0.30;65.60;;;;;;5035269;28;20080;-68
2023/02/06 00:38:15;;;;;;;77.50;32.28;;;0.30;65.60;;;;;;5038731;28;20033;-67
2023/02/06 00:40:41;;;;;;;53.17;26.15;;;0.30;65.50;;;;;;5042097;28;20031;-67
2023/02/06 00:43:06;;;;;;;66.13;30.67;;;0.30;65.60;;;;;;5040865;28;20147;-67
2023/02/06 00:45:32;;;;;;;84.53;34.10;;;0.30;65.50;;;;;;5049624;28;20036;-68
2023/02/06 00:47:58;;;;;;;71.28;32.60;;;0.30;65.40;;;;;;5037863;28;20049;-67
2023/02/06 00:50:24;;;;;;;68.35;28.55;;;0.30;65.50;;;;;;5036487;28;20104;-68
2023/02/06 00:52:49;;;;;;;57.35;26.27;;;0.30;65.60;;;;;;5047003;28;20322;-68
2023/02/06 00:55:15;;;;;;;62.90;30.35;;;0.30;65.60;;;;;;5036660;28;20334;-67
2023/02/06 00:57:40;;;;;;;56.08;27.48;;;0.30;65.60;;;;;;5048158;28;20028;-67
2023/02/06 01:00:07;;;;;;;73.90;30.90;;;0.40;65.50;;;;;;5048258;28;20124;-67
2023/02/06 01:02:35;;;;;;;74.78;29.50;;;0.30;65.50;;;;;;5038240;28;20052;-67
2023/02/06 01:05:01;;;;;;;58.28;26.55;;;0.40;65.40;;;;;;5046329;28;20051;-68
2023/02/06 01:07:27;;;;;;;70.10;28.08;;;0.40;65.50;;;;;;5053923;28;20036;-67
2023/02/06 01:09:52;;;;;;;47.08;24.55;;;0.40;65.50;;;;;;5038635;28;20091;-67
2023/02/06 01:12:19;;;;;;;77.53;27.85;;;0.40;65.60;;;;;;5055246;28;20031;-67
2023/02/06 01:14:45;;;;;;;100.25;32.63;;;0.40;65.50;;;;;;5043062;28;20075;-67
2023/02/06 01:17:10;;;;;;;56.47;28.08;;;0.40;65.60;;;;;;5042034;28;20026;-68
2023/02/06 01:19:37;;;;;;;149.30;36.22;;;0.30;65.60;;;;;;5049989;28;20033;-67
2023/02/06 01:22:03;;;;;;;51.83;25.48;;;0.40;65.50;;;;;;5037847;28;20032;-68
2023/02/06 01:24:29;;;;;;;104.05;32.05;;;0.30;65.50;;;;;;5045918;28;20374;-67
2023/02/06 01:26:54;;;;;;;54.45;25.08;;;0.30;65.60;;;;;;5037630;28;20108;-67
2023/02/06 01:29:20;;;;;;;86.25;29.02;;;0.30;65.50;;;;;;5043073;28;20090;-67
2023/02/06 01:31:45;;;;;;;77.28;29.08;;;0.30;65.60;;;;;;5046211;28;20056;-67
2023/02/06 01:34:11;;;;;;;43.88;21.88;;;0.30;65.60;;;;;;5045590;28;20075;-66
2023/02/06 01:36:37;;;;;;;88.88;27.98;;;0.40;65.40;;;;;;5037101;28;20583;-66
2023/02/06 01:39:04;;;;;;;50.65;22.08;;;0.40;65.60;;;;;;5044117;28;20318;-67
2023/02/06 01:41:30;;;;;;;71.13;24.75;;;0.30;65.90;;;;;;5041356;28;20333;-68
2023/02/06 01:44:16;;;;;;;96.57;29.40;;;0.30;65.50;;;;;;5049218;28;20021;-68
2023/02/06 01:46:46;;;;;;;84.63;28.77;;;0.30;65.50;;;;;;5062785;28;20360;-68
2023/02/06 01:49:25;;;;;;;61.63;26.73;;;0.30;65.60;;;;;;5046543;28;20025;-68
2023/02/06 01:51:54;;;;;;;85.70;28.13;;;0.30;65.50;;;;;;5051966;28;20034;-68
2023/02/06 01:54:24;;;;;;;131.80;33.90;;;0.30;65.60;;;;;;5050008;28;20438;-68
2023/02/06 01:56:55;;;;;;;47.92;22.58;;;0.30;65.70;;;;;;5043578;28;20025;-67
2023/02/06 01:59:21;;;;;;;45.35;22.23;;;0.30;65.30;;;;;;5043434;28;20031;-67
2023/02/06 02:01:46;;;;;;;47.58;21.70;;;0.40;65.40;;;;;;5047833;28;20039;-67
2023/02/06 02:04:17;;;;;;;47.15;21.77;;;0.50;65.30;;;;;;5040305;28;20187;-67
2023/02/06 02:06:49;;;;;;;43.85;21.88;;;0.50;65.90;;;;;;5037702;28;20063;-68
2023/02/06 02:09:16;;;;;;;59.15;21.27;;;0.50;65.50;;;;;;5040815;28;20076;-67
2023/02/06 02:11:42;;;;;;;70.70;26.40;;;0.50;65.40;;;;;;5038783;28;20017;-68
2023/02/06 02:14:10;;;;;;;76.13;25.08;;;0.50;65.60;;;;;;5043211;28;20033;-67
2023/02/06 02:16:52;;;;;;;74.60;27.13;;;0.40;66.00;;;;;;5040409;28;20082;-67
2023/02/06 02:19:36;;;;;;;50.90;23.88;;;0.40;65.70;;;;;;5046832;28;20067;-68
2023/02/06 02:22:28;;;;;;;103.07;30.90;;;0.40;65.60;;;;;;5038756;28;20410;-67
2023/02/06 02:25:14;;;;;;;79.90;28.60;;;0.40;66.00;;;;;;5038534;28;20041;-67
2023/02/06 02:28:18;;;;;;;61.67;26.85;;;0.40;65.70;;;;;;5045531;28;20017;-67
2023/02/06 02:30:52;;;;;;;98.90;28.42;;;0.40;65.70;;;;;;5030823;28;20040;-68
2023/02/06 02:33:49;;;;;;;86.63;27.83;;;0.50;65.60;;;;;;5045768;28;20438;-68
2023/02/06 02:36:26;;;;;;;51.38;23.92;;;0.50;65.60;;;;;;5048343;28;20025;-67
2023/02/06 02:38:54;;;;;;;160.38;31.35;;;0.50;65.80;;;;;;5041656;28;20028;-68
2023/02/06 02:41:43;;;;;;;121.13;28.83;;;0.50;66.30;;;;;;5033154;28;20021;-67
2023/02/06 02:44:28;;;;;;;201.82;32.70;;;0.40;65.90;;;;;;5031122;28;20033;-67
2023/02/06 02:47:00;;;;;;;66.15;24.05;;;0.50;65.70;;;;;;5031285;28;20130;-67
2023/02/06 02:49:28;;;;;;;108.38;28.85;;;0.50;65.60;;;;;;5032198;28;20029;-67
2023/02/06 02:51:55;;;;;;;136.23;28.23;;;0.50;65.80;;;;;;5031723;28;20049;-68
2023/02/06 02:54:20;;;;;;;132.50;29.17;;;0.50;65.80;;;;;;5029172;28;20033;-67
2023/02/06 02:56:46;;;;;;;452.70;41.25;;;0.50;65.60;;;;;;5032169;28;20033;-67
2023/02/06 02:59:25;;;;;;;401.17;37.40;;;0.50;65.90;;;;;;5035749;28;20033;-67
2023/02/06 03:02:04;;;;;;;51.58;23.75;;;0.50;66.10;;;;;;5037293;28;20048;-67
2023/02/06 03:04:41;;;;;;;43.40;23.23;;;0.50;65.60;;;;;;5039253;28;20053;-67
2023/02/06 03:07:31;;;;;;;200.18;31.20;;;0.50;65.90;;;;;;5035805;28;20033;-67
2023/02/06 03:10:30;;;;;;;236.30;33.85;;;0.50;66.20;;;;;;5030378;28;20033;-67
2023/02/06 03:13:15;;;;;;;324.27;34.85;;;0.40;65.90;;;;;;5052767;28;20055;-67
2023/02/06 03:15:43;;;;;;;223.88;33.47;;;0.40;65.60;;;;;;5038868;28;20025;-67
2023/02/06 03:18:31;;;;;;;337.17;35.35;;;0.40;65.60;;;;;;5046953;28;20036;-67
2023/02/06 03:20:58;;;;;;;442.05;42.47;;;0.40;65.60;;;;;;5041550;28;20512;-67
2023/02/06 03:23:29;;;;;;;270.35;33.00;;;0.40;65.40;;;;;;5044429;28;20425;-68
2023/02/06 03:25:59;;;;;;;116.00;29.33;;;0.40;65.60;;;;;;5034839;28;20043;-67
2023/02/06 03:28:29;;;;;;;625.00;51.85;;;0.30;65.50;;;;;;5033021;28;20032;-68
2023/02/06 03:30:58;;;;;;;158.63;31.80;;;0.30;65.50;;;;;;5043478;28;20047;-68
2023/02/06 03:33:32;;;;;;;311.27;38.47;;;0.30;65.40;;;;;;5038985;28;20025;-67
2023/02/06 03:35:58;;;;;;;422.80;42.83;;;0.30;65.20;;;;;;5042769;28;20228;-67
2023/02/06 03:38:24;;;;;;;643.03;54.50;;;0.30;65.50;;;;;;5047427;28;20543;-67
2023/02/06 03:40:51;;;;;;;88.65;28.40;;;0.30;65.40;;;;;;5048438;28;20027;-67
2023/02/06 03:43:18;;;;;;;521.55;51.40;;;0.30;65.00;;;;;;5047906;28;20451;-68
2023/02/06 03:45:51;;;;;;;113.07;28.52;;;0.30;65.20;;;;;;5042771;28;20108;-67
2023/02/06 03:48:28;;;;;;;97.53;33.40;;;0.40;65.10;;;;;;5049586;28;20039;-67
2023/02/06 03:50:56;;;;;;;125.40;32.05;;;0.40;65.10;;;;;;5038118;28;20032;-67
2023/02/06 03:53:24;;;;;;;243.00;41.15;;;0.40;65.10;;;;;;5053690;28;20029;-67
2023/02/06 03:55:57;;;;;;;149.45;32.53;;;0.40;65.20;;;;;;5039513;28;20024;-67
2023/02/06 03:58:23;;;;;;;100.78;31.58;;;0.30;65.20;;;;;;5047111;28;20029;-66
2023/02/06 04:00:49;;;;;;;177.57;37.15;;;0.40;65.00;;;;;;5045265;28;20036;-67
2023/02/06 04:03:15;;;;;;;154.77;33.88;;;0.40;65.10;;;;;;5048445;28;20116;-67
2023/02/06 04:05:41;;;;;;;112.03;30.38;;;0.40;65.10;;;;;;5038563;28;20032;-67
2023/02/06 04:08:07;;;;;;;128.50;32.78;;;0.40;64.90;;;;;;5041718;28;20485;-67
2023/02/06 04:10:32;;;;;;;207.50;35.50;;;0.50;65.00;;;;;;5050833;28;20057;-67
2023/02/06 04:12:58;;;;;;;116.35;30.38;;;0.40;65.10;;;;;;5039153;28;20037;-67
2023/02/06 04:15:23;;;;;;;115.13;31.20;;;0.30;65.20;;;;;;5044854;28;20038;-67
2023/02/06 04:17:51;;;;;;;159.38;33.92;;;0.40;65.00;;;;;;5045373;28;20025;-67
2023/02/06 04:20:17;;;;;;;87.13;31.13;;;0.40;65.10;;;;;;5047075;28;20025;-68
2023/02/06 04:22:43;;;;;;;71.93;29.90;;;0.30;65.10;;;;;;5039859;28;20017;-68
2023/02/06 04:25:09;;;;;;;101.00;28.98;;;0.30;65.00;;;;;;5040227;28;20045;-67
2023/02/06 04:27:35;;;;;;;61.63;27.55;;;0.30;65.10;;;;;;5041987;28;20039;-68
2023/02/06 04:30:05;;;;;;;91.03;28.85;;;0.30;64.90;;;;;;5043150;28;20029;-67
2023/02/06 04:32:33;;;;;;;64.85;24.77;;;0.30;65.10;;;;;;5035886;28;20033;-67
2023/02/06 04:34:59;;;;;;;53.67;23.95;;;0.30;65.10;;;;;;5043209;28;20321;-67
2023/02/06 04:37:24;;;;;;;61.92;24.92;;;0.30;65.00;;;;;;5041924;28;20021;-67
2023/02/06 04:39:50;;;;;;;77.25;27.70;;;0.40;65.00;;;;;;5044087;28;20018;-67
2023/02/06 04:42:16;;;;;;;103.75;29.17;;;0.30;65.20;;;;;;5042556;28;20496;-67
2023/02/06 04:44:41;;;;;;;63.80;25.85;;;0.30;65.20;;;;;;5047834;28;20055;-67
2023/02/06 04:47:07;;;;;;;47.28;23.20;;;0.30;65.20;;;;;;5042320;28;20325;-67
2023/02/06 04:49:32;;;;;;;80.03;31.25;;;0.30;65.20;;;;;;5050468;28;20032;-67
2023/02/06 04:51:58;;;;;;;50.83;25.58;;;0.30;65.10;;;;;;5043432;28;20437;-67
2023/02/06 04:54:24;;;;;;;57.08;23.77;;;0.30;65.20;;;;;;5042561;28;20036;-67
2023/02/06 04:56:49;;;;;;;100.45;39.22;;;0.30;65.20;;;;;;5044104;28;20037;-67
2023/02/06 04:59:15;;;;;;;77.43;31.80;;;0.30;65.20;;;;;;5051206;28;20092;-67
2023/02/06 05:01:41;;;;;;;99.57;35.20;;;0.30;65.30;;;;;;5045679;28;20032;-67
2023/02/06 05:04:07;;;;;;;106.57;32.03;;;0.30;65.20;;;;;;5040766;28;20036;-66
2023/02/06 05:06:32;;;;;;;86.38;30.75;;;0.30;65.30;;;;;;5042748;28;20029;-67
2023/02/06 05:09:01;;;;;;;66.97;26.70;;;0.30;65.30;;;;;;5037314;28;20029;-66
2023/02/06 05:11:27;;;;;;;78.70;31.67;;;0.30;65.20;;;;;;5043572;28;20027;-67
2023/02/06 05:13:52;;;;;;;98.32;31.23;;;0.30;65.30;;;;;;5027853;28;20025;-67
2023/02/06 05:16:21;;;;;;;65.78;25.95;;;0.30;65.40;;;;;;5031447;28;20017;-67
2023/02/06 05:18:50;;;;;;;67.53;27.92;;;0.20;65.60;;;;;;5031089;28;20523;-67
2023/02/06 05:21:16;;;;;;;73.38;28.70;;;0.20;65.60;;;;;;5025143;28;20046;-67
2023/02/06 05:23:44;;;;;;;82.20;28.60;;;0.30;65.40;;;;;;5027241;28;20833;-67
2023/02/06 05:26:10;;;;;;;87.63;31.75;;;0.30;65.30;;;;;;5023365;28;20049;-67
2023/02/06 05:28:36;;;;;;;156.75;38.58;;;0.30;65.20;;;;;;5026448;28;20043;-67
2023/02/06 05:31:03;;;;;;;81.43;31.45;;;0.30;65.50;;;;;;5025048;28;20468;-66
2023/02/06 05:33:30;;;;;;;222.63;41.63;;;0.30;65.20;;;;;;5030496;28;20082;-66
2023/02/06 05:36:04;;;;;;;204.85;38.00;;;0.30;65.30;;;;;;5027728;28;20120;-66
2023/02/06 05:38:29;;;;;;;701.80;55.28;;;0.30;65.40;;;;;;5036642;28;20021;-68
2023/02/06 05:40:55;;;;;;;293.58;40.08;;;0.30;65.30;;;;;;5040025;28;20028;-68
2023/02/06 05:43:21;;;;;;;609.97;52.90;;;0.40;65.10;;;;;;5041588;28;20091;-67
2023/02/06 05:45:46;;;;;;;335.27;38.63;;;0.40;65.20;;;;;;5041926;28;20039;-67
2023/02/06 05:48:12;;;;;;;704.15;56.35;;;0.40;65.30;;;;;;5043147;28;20037;-67
2023/02/06 05:50:37;;;;;;;770.97;58.08;;;0.40;65.50;;;;;;5040344;28;20410;-67
2023/02/06 05:53:03;;;;;;;785.53;59.40;;;0.30;65.40;;;;;;5041699;28;20029;-66
2023/02/06 05:55:28;;;;;;;420.65;48.28;;;0.30;65.50;;;;;;5051900;28;20074;-67
2023/02/06 05:57:54;;;;;;;515.05;52.47;;;0.30;65.20;;;;;;5046651;28;20028;-67
2023/02/06 06:00:20;;;;;;;229.15;40.92;;;0.30;65.30;;;;;;5046299;28;20021;-67
2023/02/06 06:02:45;;;;;;;213.85;41.05;;;0.30;65.00;;;;;;5037303;28;20037;-67
2023/02/06 06:05:11;;;;;;;158.48;39.95;;;0.30;65.20;;;;;;5038748;28;20433;-67
2023/02/06 06:07:36;;;;;;;197.70;42.03;;;0.20;65.40;;;;;;5042639;28;20021;-67
2023/02/06 06:10:02;;;;;;;276.20;46.60;;;0.20;65.30;;;;;;5051645;28;20037;-67
2023/02/06 06:12:27;;;;;;;328.70;52.10;;;0.20;65.40;;;;;;5055015;28;20033;-67
2023/02/06 06:14:53;;;;;;;170.13;45.60;;;0.20;65.30;;;;;;5045973;28;20021;-67
2023/02/06 06:17:20;;;;;;;170.60;41.30;;;0.20;65.00;;;;;;5043676;28;20025;-67
2023/02/06 06:19:45;;;;;;;100.80;35.17;;;0.30;64.80;;;;;;5053407;28;20044;-67
2023/02/06 06:22:11;;;;;;;103.63;37.55;;;0.30;65.00;;;;;;5049706;28;20460;-67
2023/02/06 06:24:37;;;;;;;143.63;43.45;;;0.30;65.30;;;;;;5038243;28;20041;-67
2023/02/06 06:27:02;;;;;;;292.67;47.35;;;0.20;65.30;;;;;;5044728;28;20112;-66
2023/02/06 06:29:28;;;;;;;323.35;49.63;;;0.30;65.30;;;;;;5042844;28;20079;-67
2023/02/06 06:31:54;;;;;;;165.38;41.63;;;0.20;65.40;;;;;;5047288;28;20044;-67
2023/02/06 06:34:20;;;;;;;205.02;49.40;;;0.20;65.30;;;;;;5049008;28;20029;-67
2023/02/06 06:36:45;;;;;;;216.40;48.15;;;0.20;65.40;;;;;;5050721;28;20040;-67
2023/02/06 06:39:11;;;;;;;135.32;43.28;;;0.20;65.30;;;;;;5054364;28;20422;-67
2023/02/06 06:41:37;;;;;;;142.00;42.15;;;0.20;65.30;;;;;;5045596;28;20032;-67
2023/02/06 06:44:02;;;;;;;86.43;36.88;;;0.30;65.30;;;;;;5042847;28;20029;-67
2023/02/06 06:46:28;;;;;;;238.90;53.47;;;0.30;65.20;;;;;;5038291;28;20062;-67
2023/02/06 06:48:53;;;;;;;94.53;40.85;;;0.20;65.70;;;;;;5043713;28;20033;-67
2023/02/06 06:51:19;;;;;;;186.73;52.55;;;0.20;65.40;;;;;;5048535;28;20057;-68
2023/02/06 06:53:48;;;;;;;116.75;44.83;;;0.20;65.60;;;;;;5052576;28;20060;-68
2023/02/06 06:56:14;;;;;;;83.00;39.83;;;0.20;65.50;;;;;;5057201;28;20447;-67
2023/02/06 06:58:40;;;;;;;94.45;40.60;;;0.20;65.40;;;;;;5062393;28;20120;-67
2023/02/06 07:01:07;;;;;;;94.53;39.10;;;0.30;65.20;;;;;;5058027;28;20048;-67
2023/02/06 07:03:33;;;;;;;92.22;40.22;;;0.30;65.40;;;;;;5046361;28;20037;-67
2023/02/06 07:05:59;;;;;;;86.15;36.97;;;0.20;65.70;;;;;;5051584;28;20025;-67
2023/02/06 07:08:25;;;;;;;86.45;39.97;;;0.20;65.60;;;;;;5049442;28;20029;-67
2023/02/06 07:10:51;;;;;;;123.82;46.75;;;0.20;65.80;;;;;;5044499;28;20116;-67
2023/02/06 07:13:16;;;;;;;115.15;47.83;;;0.10;66.00;;;;;;5048468;28;20390;-67
2023/02/06 07:15:42;;;;;;;106.35;44.65;;;0.10;65.70;;;;;;5044977;28;20029;-67
2023/02/06 07:18:08;;;;;;;70.18;34.83;;;0.10;65.70;;;;;;5039058;28;20036;-67
2023/02/06 07:20:36;;;;;;;88.70;38.42;;;0.10;65.80;;;;;;5048138;28;20425;-67
2023/02/06 07:23:03;;;;;;;63.38;33.83;;;0.10;65.70;;;;;;5033959;28;20143;-67
2023/02/06 07:25:28;;;;;;;92.32;39.50;;;0.20;65.70;;;;;;5055552;28;20045;-67
2023/02/06 07:27:54;;;;;;;78.68;38.70;;;0.20;66.20;;;;;;5056295;28;20036;-67
2023/02/06 07:30:20;;;;;;;62.95;31.85;;;0.20;66.10;;;;;;5056318;28;20068;-67
2023/02/06 07:32:45;;;;;;;64.22;32.40;;;0.20;66.50;;;;;;5056133;28;20033;-67
2023/02/06 07:35:11;;;;;;;73.82;36.00;;;0.20;66.80;;;;;;5046437;28;20021;-67
2023/02/06 07:37:37;;;;;;;56.00;31.33;;;0.30;66.90;;;;;;5050287;28;20028;-67
2023/02/06 07:40:04;;;;;;;60.47;31.73;;;0.30;67.10;;;;;;5050866;28;20108;-67
2023/02/06 07:42:31;;;;;;;68.32;32.38;;;0.30;67.50;;;;;;5046772;28;20016;-67
2023/02/06 07:44:57;;;;;;;77.45;35.33;;;0.30;68.50;;;;;;5054443;28;20317;-67
2023/02/06 07:47:22;;;;;;;56.15;29.90;;;0.20;68.50;;;;;;5056138;28;20032;-67
2023/02/06 07:49:48;;;;;;;74.68;35.10;;;0.20;68.90;;;;;;5055869;28;20107;-67
2023/02/06 07:52:14;;;;;;;73.43;36.15;;;0.20;69.10;;;;;;5036906;28;20033;-67
2023/02/06 07:54:40;;;;;;;60.97;33.58;;;0.20;70.50;;;;;;5034779;28;20376;-67
2023/02/06 07:57:06;;;;;;;75.38;34.90;;;0.20;69.20;;;;;;5035974;28;20120;-67
2023/02/06 07:59:31;;;;;;;56.22;31.92;;;0.30;69.70;;;;;;5050098;28;20402;-67
2023/02/06 08:01:57;;;;;;;61.75;32.45;;;0.30;70.20;;;;;;5035901;28;20410;-67
2023/02/06 08:04:22;;;;;;;51.47;28.05;;;0.40;70.60;;;;;;5035788;28;20032;-67
2023/02/06 08:06:48;;;;;;;43.50;25.48;;;0.40;71.90;;;;;;5035622;28;20143;-67
2023/02/06 08:09:17;;;;;;;51.30;30.55;;;0.40;71.80;;;;;;5036475;28;20453;-67
2023/02/06 08:11:43;;;;;;;51.58;29.88;;;0.60;70.90;;;;;;5047441;28;20329;-67
2023/02/06 08:14:09;;;;;;;50.53;29.83;;;0.60;74.10;;;;;;5040820;28;20030;-67
2023/02/06 08:16:35;;;;;;;56.40;31.73;;;0.60;74.90;;;;;;5042421;28;20028;-67
2023/02/06 08:19:00;;;;;;;57.65;33.20;;;0.70;75.50;;;;;;5043105;28;20029;-66
2023/02/06 08:21:26;;;;;;;50.25;28.95;;;0.60;78.30;;;;;;5047012;28;20029;-66
2023/02/06 08:23:56;;;;;;;63.08;33.65;;;0.60;78.50;;;;;;5052691;28;20321;-66
2023/02/06 08:26:23;;;;;;;57.33;31.65;;;0.70;80.20;;;;;;5059568;28;20106;-66
2023/02/06 08:28:50;;;;;;;58.85;33.03;;;0.60;81.20;;;;;;5059772;28;20483;-66
2023/02/06 08:31:16;;;;;;;63.45;33.78;;;0.50;81.40;;;;;;5050646;28;20041;-66
2023/02/06 08:33:42;;;;;;;71.97;36.50;;;0.40;81.20;;;;;;5039527;28;20029;-66
2023/02/06 08:36:09;;;;;;;75.53;38.65;;;0.40;81.90;;;;;;5039724;28;20067;-66
2023/02/06 08:38:35;;;;;;;99.30;42.78;;;0.40;82.40;;;;;;5038630;28;20434;-66
2023/02/06 08:41:00;;;;;;;68.18;37.70;;;0.30;82.90;;;;;;5058954;28;20061;-67
2023/02/06 08:43:26;;;;;;;76.95;39.75;;;0.30;81.30;;;;;;5050304;28;20052;-66
2023/02/06 08:45:55;;;;;;;68.70;36.92;;;0.30;81.70;;;;;;5042872;28;20029;-66
2023/02/06 08:48:20;;;;;;;57.50;31.50;;;0.30;79.70;;;;;;5055862;28;20021;-67
2023/02/06 08:50:46;;;;;;;82.47;41.67;;;0.30;80.70;;;;;;5038941;28;20079;-66
2023/02/06 08:53:12;;;;;;;91.47;43.92;;;0.30;82.40;;;;;;5055550;28;20024;-66
2023/02/06 08:55:37;;;;;;;70.65;38.42;;;0.30;81.30;;;;;;5055623;28;20028;-67
2023/02/06 08:58:03;;;;;;;80.00;41.08;;;0.30;81.00;;;;;;5044080;28;20436;-66
2023/02/06 09:00:29;;;;;;;81.90;41.90;;;0.30;81.80;;;;;;5054138;28;20029;-67
2023/02/06 09:02:55;;;;;;;81.53;40.95;;;0.30;81.10;;;;;;5040567;28;20110;-66
2023/02/06 09:05:21;;;;;;;79.60;37.08;;;0.40;81.10;;;;;;5050296;28;20333;-67
2023/02/06 09:07:47;;;;;;;64.80;35.97;;;0.40;82.70;;;;;;5037857;28;20040;-67
2023/02/06 09:10:14;;;;;;;72.03;37.15;;;0.40;83.10;;;;;;5038687;28;20037;-67
2023/02/06 09:12:40;;;;;;;52.53;30.52;;;0.50;83.30;;;;;;5041192;28;20025;-66
2023/02/06 09:15:06;;;;;;;66.78;34.13;;;0.60;82.50;;;;;;5047748;28;20052;-67
2023/02/06 09:17:32;;;;;;;65.82;35.42;;;0.60;84.80;;;;;;5035355;28;20039;-66
2023/02/06 09:19:59;;;;;;;58.08;32.95;;;0.50;85.10;;;;;;5040293;28;20017;-66
2023/02/06 09:22:25;;;;;;;54.47;32.13;;;0.50;84.10;;;;;;5035304;28;20044;-67
2023/02/06 09:24:50;;;;;;;66.53;35.38;;;0.70;86.50;;;;;;5033425;28;20184;-67
2023/02/06 09:27:16;;;;;;;66.57;35.83;;;0.70;87.00;;;;;;5035425;28;20021;-67
2023/02/06 09:29:42;;;;;;;79.07;39.97;;;0.70;86.50;;;;;;5033667;28;20028;-67
2023/02/06 09:32:10;;;;;;;63.75;36.88;;;0.60;86.30;;;;;;5034940;28;20034;-68
2023/02/06 09:34:36;;;;;;;59.78;32.00;;;0.70;84.60;;;;;;5040178;28;20037;-68
2023/02/06 09:37:05;;;;;;;70.57;37.15;;;0.60;88.40;;;;;;5034798;28;20034;-67
2023/02/06 09:39:31;;;;;;;52.25;29.00;;;0.60;88.50;;;;;;5041560;28;20033;-68
2023/02/06 09:42:15;;;;;;;51.25;29.40;;;0.70;88.90;;;;;;5033960;28;20026;-68
2023/02/06 09:44:47;;;;;;;50.38;28.33;;;0.60;90.20;;;;;;5034106;28;20044;-70
2023/02/06 09:47:29;;;;;;;53.55;31.02;;;0.50;89.70;;;;;;5033715;28;20075;-69
2023/02/06 09:50:01;;;;;;;55.88;32.55;;;0.60;90.30;;;;;;5039869;28;20036;-68
2023/02/06 09:52:36;;;;;;;56.10;32.58;;;0.70;89.90;;;;;;5038832;28;20028;-69
2023/02/06 09:55:34;;;;;;;53.80;30.83;;;0.70;91.10;;;;;;5037202;28;20045;-69
2023/02/06 09:58:22;;;;;;;45.83;26.75;;;0.60;92.10;;;;;;5039405;28;20029;-68
2023/02/06 10:01:12;;;;;;;38.65;23.17;;;0.50;91.60;;;;;;5039709;28;20041;-68
2023/02/06 10:03:56;;;;;;;44.88;26.77;;;0.60;91.50;;;;;;5036620;28;20029;-68
2023/02/06 10:06:23;;;;;;;40.65;24.77;;;0.60;93.40;;;;;;5036176;28;20029;-68
2023/02/06 10:09:03;;;;;;;47.40;26.80;;;0.60;92.90;;;;;;5047627;28;20036;-68
2023/02/06 10:11:31;;;;;;;49.83;27.95;;;0.50;93.10;;;;;;5036857;28;20044;-68
2023/02/06 10:14:09;;;;;;;44.55;24.85;;;0.60;92.20;;;;;;5039176;28;20036;-68
2023/02/06 10:16:49;;;;;;;37.85;22.95;;;0.70;92.80;;;;;;5035108;28;20025;-68
2023/02/06 10:19:30;;;;;;;45.92;25.65;;;0.70;96.20;;;;;;5041548;28;20021;-68
2023/02/06 10:22:20;;;;;;;40.03;23.58;;;0.60;95.70;;;;;;5035721;28;20430;-68
2023/02/06 10:25:35;;;;;;;39.25;23.85;;;0.70;94.10;;;;;;5042768;28;20048;-68
2023/02/06 10:28:11;;;;;;;40.35;25.58;;;0.80;96.10;;;;;;5034032;28;20067;-68
2023/02/06 10:31:14;;;;;;;44.40;28.02;;;0.80;96.70;;;;;;5047670;28;20030;-68
2023/02/06 10:34:02;;;;;;;56.05;30.17;;;0.60;96.30;;;;;;5024189;28;20048;-68
2023/02/06 10:36:56;;;;;;;46.30;29.13;;;0.50;93.40;;;;;;5052532;28;20084;-68
2023/02/06 10:39:22;;;;;;;48.33;27.53;;;0.50;92.90;;;;;;5044866;28;20346;-68
2023/02/06 10:42:04;;;;;;;52.92;30.73;;;0.40;94.50;;;;;;5036895;28;20021;-68
2023/02/06 10:44:47;;;;;;;43.60;27.65;;;0.40;93.60;;;;;;5051422;28;20286;-68
2023/02/06 10:47:35;;;;;;;48.92;28.25;;;0.40;93.40;;;;;;5038442;28;20294;-69
2023/02/06 10:50:17;;;;;;;40.30;24.42;;;0.50;92.60;;;;;;5037558;28;20108;-69
2023/02/06 10:52:46;;;;;;;41.78;25.58;;;0.50;94.20;;;;;;5049753;28;20068;-68
2023/02/06 10:55:19;;;;;;;46.60;27.83;;;0.60;95.20;;;;;;5048110;28;20029;-68
2023/02/06 10:57:46;;;;;;;45.58;29.25;;;0.50;94.50;;;;;;5036113;28;20318;-68
2023/02/06 11:00:24;;;;;;;50.25;30.73;;;0.50;94.10;;;;;;5042761;28;20033;-68
2023/02/06 11:02:55;;;;;;;38.60;23.98;;;0.40;94.10;;;;;;5040086;28;20047;-68
2023/02/06 11:05:24;;;;;;;43.05;27.27;;;0.40;95.10;;;;;;5036056;28;20116;-68
2023/02/06 11:07:53;;;;;;;45.53;28.60;;;0.20;94.30;;;;;;5035592;28;20021;-68
2023/02/06 11:10:24;;;;;;;51.53;29.02;;;0.30;96.70;;;;;;5036961;28;20317;-68
2023/02/06 11:13:00;;;;;;;61.10;36.00;;;0.20;95.70;;;;;;5039267;28;20112;-68
2023/02/06 11:15:37;;;;;;;48.22;29.10;;;0.30;93.90;;;;;;5035375;28;20025;-68
2023/02/06 11:18:06;;;;;;;51.03;32.88;;;0.30;94.10;;;;;;5039091;28;20064;-68
2023/02/06 11:20:35;;;;;;;62.15;35.63;;;0.30;93.80;;;;;;5041969;28;20055;-68
2023/02/06 11:23:28;;;;;;;60.10;35.33;;;0.20;93.50;;;;;;5035633;28;20034;-68
2023/02/06 11:26:15;;;;;;;59.72;35.67;;;0.10;92.10;;;;;;5050926;28;20041;-68
2023/02/06 11:28:53;;;;;;;54.65;32.75;;;0.10;91.40;;;;;;5036161;28;20318;-68
2023/02/06 11:31:36;;;;;;;47.17;30.23;;;0.00;91.20;;;;;;5036297;28;20044;-68
2023/02/06 11:34:02;;;;;;;42.95;25.65;;;0.00;91.10;;;;;;5034909;28;20315;-68
2023/02/06 11:36:33;;;;;;;43.33;26.70;;;0.00;91.60;;;;;;5048082;28;20056;-67
2023/02/06 11:39:02;;;;;;;66.80;41.35;;;0.00;92.80;;;;;;5032649;28;20422;-68
2023/02/06 11:41:29;;;;;;;49.25;28.17;;;-0.10;93.10;;;;;;5032855;28;20364;-67
2023/02/06 11:44:01;;;;;;;48.70;29.88;;;-0.10;93.00;;;;;;5035457;28;20315;-67
2023/02/06 11:46:34;;;;;;;46.45;27.17;;;-0.10;92.20;;;;;;5035294;28;20290;-68
2023/02/06 11:49:01;;;;;;;43.45;26.95;;;0.00;91.70;;;;;;5046229;28;20021;-68
2023/02/06 11:51:50;;;;;;;44.20;27.77;;;0.00;91.10;;;;;;5037082;28;20326;-67
2023/02/06 11:54:27;;;;;;;41.15;25.70;;;0.10;91.90;;;;;;5036616;28;20083;-67
2023/02/06 11:57:18;;;;;;;53.38;30.75;;;0.20;93.20;;;;;;5047061;28;20079;-68
2023/02/06 11:59:51;;;;;;;47.30;30.50;;;0.10;92.70;;;;;;5035709;28;20048;-67
2023/02/06 12:02:35;;;;;;;41.00;26.67;;;0.20;93.70;;;;;;5035576;28;20028;-67
2023/02/06 12:05:13;;;;;;;42.28;26.85;;;0.20;93.20;;;;;;5035289;28;20022;-67
2023/02/06 12:07:50;;;;;;;42.28;27.85;;;0.20;92.60;;;;;;5034404;28;20029;-67
2023/02/06 12:10:19;;;;;;;45.10;27.77;;;0.20;93.90;;;;;;5036010;28;20452;-67
2023/02/06 12:12:52;;;;;;;47.53;27.90;;;0.30;93.00;;;;;;5035817;28;20346;-67
2023/02/06 12:15:23;;;;;;;52.47;29.35;;;0.10;94.20;;;;;;5040062;28;20359;-67
2023/02/06 12:18:03;;;;;;;40.00;26.55;;;0.10;93.50;;;;;;5035692;28;20032;-67
2023/02/06 12:20:32;;;;;;;47.92;28.10;;;0.10;94.00;;;;;;5038002;28;20032;-68
2023/02/06 12:23:13;;;;;;;45.28;28.52;;;0.10;94.80;;;;;;5044072;28;20032;-67
2023/02/06 12:25:41;;;;;;;43.03;28.20;;;0.10;94.80;;;;;;5039294;28;20100;-67
2023/02/06 12:28:28;;;;;;;48.03;27.90;;;0.00;95.00;;;;;;5035648;28;20029;-67
2023/02/06 12:30:55;;;;;;;45.13;28.00;;;0.10;93.80;;;;;;5041399;28;20031;-67
2023/02/06 12:33:36;;;;;;;42.10;26.48;;;0.10;95.90;;;;;;5049864;28;20103;-67
2023/02/06 12:36:16;;;;;;;35.05;22.08;;;0.10;96.70;;;;;;5035704;28;20325;-67
2023/02/06 12:38:51;;;;;;;45.67;28.30;;;0.10;97.00;;;;;;5033962;28;20025;-69
2023/02/06 12:41:27;;;;;;;48.30;29.95;;;0.10;95.70;;;;;;5046725;28;20413;-68
2023/02/06 12:44:18;;;;;;;50.47;28.60;;;0.20;95.00;;;;;;5036471;28;20069;-68
2023/02/06 12:46:48;;;;;;;41.33;27.17;;;0.10;95.70;;;;;;5052756;28;20058;-68
2023/02/06 12:49:36;;;;;;;45.90;28.27;;;0.10;95.70;;;;;;5044182;28;20038;-68